createdAt,value
2019-06-26T00:00:47.181Z,0.00
2019-06-26T00:01:47.216Z,0.00
2019-06-26T00:02:47.116Z,0.00
2019-06-26T00:03:47.103Z,0.00
2019-06-26T00:04:47.102Z,0.00
2019-06-26T00:05:47.127Z,0.00
2019-06-26T00:06:47.081Z,0.00
2019-06-26T00:07:47.067Z,0.00
2019-06-26T00:08:47.063Z,0.00
2019-06-26T00:09:47.044Z,0.00
2019-06-26T00:10:47.043Z,0.00
2019-06-26T00:11:47.021Z,0.00
2019-06-26T00:12:47.030Z,0.00
2019-06-26T00:13:47.009Z,0.00
2019-06-26T00:14:46.982Z,0.00
2019-06-26T00:15:47.005Z,0.00
2019-06-26T00:16:46.960Z,0.00
2019-06-26T00:17:46.960Z,0.00
2019-06-26T00:18:46.936Z,0.00
2019-06-26T00:19:46.943Z,0.00
2019-06-26T00:20:46.951Z,0.00
2019-06-26T00:21:46.902Z,0.00
2019-06-26T00:22:46.906Z,0.00
2019-06-26T00:23:46.882Z,0.00
2019-06-26T00:24:46.901Z,0.00
2019-06-26T00:25:46.911Z,0.00
2019-06-26T00:26:46.853Z,0.00
2019-06-26T00:27:46.835Z,0.00
2019-06-26T00:28:46.831Z,0.00
2019-06-26T00:29:46.814Z,0.00
2019-06-26T00:30:46.831Z,0.00
2019-06-26T00:31:46.801Z,0.00
2019-06-26T00:32:46.789Z,0.00
2019-06-26T00:33:46.770Z,0.00
2019-06-26T00:34:46.770Z,0.00
2019-06-26T00:35:46.800Z,0.00
2019-06-26T00:36:46.739Z,0.00
2019-06-26T00:37:46.731Z,0.00
2019-06-26T00:38:46.711Z,0.00
2019-06-26T00:39:46.699Z,0.00
2019-06-26T00:40:46.732Z,0.00
2019-06-26T00:41:46.700Z,0.00
2019-06-26T00:42:46.673Z,0.00
2019-06-26T00:43:46.667Z,0.00
2019-06-26T00:44:46.666Z,0.00
2019-06-26T00:45:46.670Z,0.00
2019-06-26T00:46:46.640Z,0.00
2019-06-26T00:47:46.638Z,0.00
2019-06-26T00:48:46.627Z,0.00
2019-06-26T00:49:46.629Z,0.00
2019-06-26T00:50:46.622Z,0.00
2019-06-26T00:51:46.603Z,0.00
2019-06-26T00:52:46.582Z,0.00
2019-06-26T00:53:46.566Z,0.00
2019-06-26T00:54:46.576Z,0.00
2019-06-26T00:55:46.562Z,0.00
2019-06-26T00:56:46.535Z,0.00
2019-06-26T00:57:46.501Z,0.00
2019-06-26T00:58:46.511Z,0.00
2019-06-26T00:59:46.498Z,0.00
2019-06-26T01:00:46.510Z,0.00
2019-06-26T01:01:46.475Z,0.00
2019-06-26T01:02:46.461Z,0.00
2019-06-26T01:03:46.462Z,0.00
2019-06-26T01:04:46.442Z,0.00
2019-06-26T01:05:46.470Z,0.00
2019-06-26T01:06:46.419Z,0.00
2019-06-26T01:07:46.414Z,0.00
2019-06-26T01:08:46.394Z,0.00
2019-06-26T01:09:46.377Z,0.00
2019-06-26T01:10:46.403Z,0.00
2019-06-26T01:11:46.361Z,0.00
2019-06-26T01:12:46.351Z,0.00
2019-06-26T01:13:57.821Z,0.00
2019-06-26T01:14:47.352Z,0.00
2019-06-26T01:15:46.343Z,0.00
2019-06-26T01:16:46.342Z,0.00
2019-06-26T01:17:46.306Z,0.00
2019-06-26T01:18:46.305Z,0.00
2019-06-26T01:19:46.278Z,0.00
2019-06-26T01:20:46.263Z,0.00
2019-06-26T01:21:46.289Z,0.00
2019-06-26T01:22:46.253Z,0.00
2019-06-26T01:23:46.236Z,0.00
2019-06-26T01:24:46.216Z,0.00
2019-06-26T01:25:46.215Z,0.00
2019-06-26T01:26:46.223Z,0.00
2019-06-26T01:27:46.187Z,0.00
2019-06-26T01:28:46.183Z,0.00
2019-06-26T01:29:46.197Z,0.00
2019-06-26T01:30:46.155Z,0.00
2019-06-26T01:31:46.184Z,0.00
2019-06-26T01:32:46.141Z,0.00
2019-06-26T01:33:46.131Z,0.00
2019-06-26T01:34:46.123Z,0.00
2019-06-26T01:35:46.106Z,0.00
2019-06-26T01:36:46.111Z,0.00
2019-06-26T01:37:46.081Z,0.00
2019-06-26T01:38:46.081Z,0.00
2019-06-26T01:39:46.063Z,0.00
2019-06-26T01:40:46.055Z,0.00
2019-06-26T01:41:46.075Z,0.00
2019-06-26T01:42:46.020Z,0.00
2019-06-26T01:43:46.013Z,0.00
2019-06-26T01:44:46.015Z,0.00
2019-06-26T01:45:45.995Z,0.00
2019-06-26T01:46:46.009Z,0.00
2019-06-26T01:47:45.985Z,0.00
2019-06-26T01:48:45.975Z,0.00
2019-06-26T01:49:45.959Z,0.00
2019-06-26T01:50:45.950Z,0.00
2019-06-26T01:51:45.966Z,0.00
2019-06-26T01:52:45.916Z,0.00
2019-06-26T01:53:45.924Z,0.00
2019-06-26T01:54:45.901Z,0.00
2019-06-26T01:55:45.903Z,0.00
2019-06-26T01:56:45.930Z,0.00
2019-06-26T01:57:45.874Z,0.00
2019-06-26T01:58:45.844Z,0.00
2019-06-26T01:59:45.844Z,0.00
2019-06-26T02:00:45.896Z,0.00
2019-06-26T02:01:45.858Z,0.00
2019-06-26T02:02:45.824Z,0.00
2019-06-26T02:03:45.821Z,0.00
2019-06-26T02:04:45.797Z,0.00
2019-06-26T02:05:45.796Z,0.00
2019-06-26T02:06:45.790Z,0.00
2019-06-26T02:07:45.763Z,0.00
2019-06-26T02:08:45.766Z,0.00
2019-06-26T02:09:45.773Z,0.00
2019-06-26T02:10:45.731Z,0.00
2019-06-26T02:11:45.771Z,0.00
2019-06-26T02:12:45.732Z,0.00
2019-06-26T02:13:45.702Z,0.00
2019-06-26T02:14:45.714Z,0.00
2019-06-26T02:15:45.672Z,0.00
2019-06-26T02:16:45.679Z,0.00
2019-06-26T02:17:45.663Z,0.00
2019-06-26T02:18:45.640Z,0.00
2019-06-26T02:19:45.620Z,0.00
2019-06-26T02:20:45.623Z,0.00
2019-06-26T02:21:45.628Z,0.00
2019-06-26T02:22:45.614Z,0.00
2019-06-26T02:23:45.598Z,0.00
2019-06-26T02:24:45.589Z,0.00
2019-06-26T02:25:45.584Z,0.00
2019-06-26T02:26:45.589Z,0.00
2019-06-26T02:27:45.546Z,0.00
2019-06-26T02:28:45.548Z,0.00
2019-06-26T02:29:45.532Z,0.00
2019-06-26T02:30:45.518Z,0.00
2019-06-26T02:31:45.550Z,0.00
2019-06-26T02:32:45.492Z,0.00
2019-06-26T02:33:45.499Z,0.00
2019-06-26T02:34:45.479Z,0.00
2019-06-26T02:35:45.461Z,0.00
2019-06-26T02:36:45.508Z,0.00
2019-06-26T02:37:45.454Z,0.00
2019-06-26T02:38:45.442Z,0.00
2019-06-26T02:39:45.433Z,0.00
2019-06-26T02:40:45.425Z,0.00
2019-06-26T02:41:45.437Z,0.00
2019-06-26T02:42:45.394Z,0.00
2019-06-26T02:43:45.391Z,0.00
2019-06-26T02:44:53.293Z,0.00
2019-06-26T02:45:46.371Z,0.00
2019-06-26T02:46:45.385Z,0.00
2019-06-26T02:47:45.332Z,0.00
2019-06-26T02:48:45.342Z,0.00
2019-06-26T02:49:45.321Z,0.00
2019-06-26T02:50:45.318Z,0.00
2019-06-26T02:51:45.314Z,0.00
2019-06-26T02:52:45.283Z,0.00
2019-06-26T02:53:45.280Z,0.00
2019-06-26T02:54:45.325Z,0.00
2019-06-26T02:55:45.251Z,0.00
2019-06-26T02:56:45.280Z,0.00
2019-06-26T02:57:45.227Z,0.00
2019-06-26T02:58:45.214Z,0.00
2019-06-26T02:59:45.213Z,0.00
2019-06-26T03:00:45.210Z,0.00
2019-06-26T03:01:45.200Z,0.00
2019-06-26T03:02:45.187Z,0.00
2019-06-26T03:03:45.172Z,0.00
2019-06-26T03:04:45.178Z,0.00
2019-06-26T03:05:45.185Z,0.00
2019-06-26T03:06:45.148Z,0.00
2019-06-26T03:07:45.133Z,0.00
2019-06-26T03:08:45.124Z,0.00
2019-06-26T03:09:45.108Z,0.00
2019-06-26T03:10:45.101Z,0.00
2019-06-26T03:11:45.112Z,0.00
2019-06-26T03:12:45.089Z,0.00
2019-06-26T03:13:45.073Z,0.00
2019-06-26T03:14:45.066Z,0.00
2019-06-26T03:15:45.052Z,5.62
2019-06-26T03:16:45.060Z,5.62
2019-06-26T03:17:54.837Z,5.62
2019-06-26T03:18:46.041Z,5.62
2019-06-26T03:19:45.001Z,5.62
2019-06-26T03:20:45.003Z,5.62
2019-06-26T03:21:45.011Z,5.62
2019-06-26T03:22:44.966Z,5.62
2019-06-26T03:23:44.951Z,5.62
2019-06-26T03:24:44.959Z,5.62
2019-06-26T03:25:44.941Z,11.25
2019-06-26T03:26:44.955Z,11.25
2019-06-26T03:27:44.964Z,11.25
2019-06-26T03:28:44.921Z,11.25
2019-06-26T03:29:44.891Z,11.25
2019-06-26T03:30:44.904Z,11.25
2019-06-26T03:31:44.893Z,16.88
2019-06-26T03:32:44.908Z,16.88
2019-06-26T03:33:44.864Z,16.88
2019-06-26T03:34:44.852Z,16.88
2019-06-26T03:35:44.846Z,16.88
2019-06-26T03:36:44.808Z,16.88
2019-06-26T03:37:44.835Z,22.50
2019-06-26T03:38:44.796Z,22.50
2019-06-26T03:39:44.788Z,22.50
2019-06-26T03:40:44.770Z,22.50
2019-06-26T03:41:44.782Z,28.12
2019-06-26T03:42:44.785Z,28.12
2019-06-26T03:43:44.742Z,28.12
2019-06-26T03:44:44.752Z,28.12
2019-06-26T03:45:44.731Z,33.75
2019-06-26T03:46:44.741Z,33.75
2019-06-26T03:47:44.750Z,33.75
2019-06-26T03:48:44.701Z,39.38
2019-06-26T03:49:44.713Z,39.38
2019-06-26T03:50:44.679Z,39.38
2019-06-26T03:51:44.683Z,45.00
2019-06-26T03:52:44.688Z,45.00
2019-06-26T03:53:44.649Z,45.00
2019-06-26T03:54:44.642Z,50.62
2019-06-26T03:55:44.627Z,50.62
2019-06-26T03:56:44.619Z,56.25
2019-06-26T03:57:44.641Z,56.25
2019-06-26T03:58:44.613Z,56.25
2019-06-26T03:59:44.579Z,56.25
2019-06-26T04:00:44.576Z,61.88
2019-06-26T04:01:44.559Z,61.88
2019-06-26T04:02:44.573Z,61.88
2019-06-26T04:03:44.556Z,67.50
2019-06-26T04:04:44.547Z,67.50
2019-06-26T04:05:44.525Z,67.50
2019-06-26T04:06:44.526Z,73.12
2019-06-26T04:07:44.534Z,73.12
2019-06-26T04:08:44.488Z,78.75
2019-06-26T04:09:44.483Z,78.75
2019-06-26T04:10:44.454Z,84.38
2019-06-26T04:11:44.459Z,84.38
2019-06-26T04:12:44.478Z,90.00
2019-06-26T04:13:44.428Z,90.00
2019-06-26T04:14:44.426Z,95.62
2019-06-26T04:15:44.435Z,95.62
2019-06-26T04:16:44.400Z,101.25
2019-06-26T04:17:44.405Z,106.88
2019-06-26T04:18:44.386Z,112.50
2019-06-26T04:19:44.380Z,112.50
2019-06-26T04:20:44.364Z,112.50
2019-06-26T04:21:44.359Z,118.12
2019-06-26T04:22:47.433Z,118.12
2019-06-26T04:23:44.324Z,118.12
2019-06-26T04:24:44.326Z,123.75
2019-06-26T04:25:44.345Z,129.38
2019-06-26T04:26:44.298Z,129.38
2019-06-26T04:27:44.326Z,135.00
2019-06-26T04:28:44.282Z,135.00
2019-06-26T04:29:44.259Z,140.62
2019-06-26T04:30:44.258Z,140.62
2019-06-26T04:31:44.244Z,140.62
2019-06-26T04:32:44.254Z,146.25
2019-06-26T04:33:44.211Z,146.25
2019-06-26T04:34:44.199Z,151.88
2019-06-26T04:35:44.207Z,157.50
2019-06-26T04:36:44.184Z,174.38
2019-06-26T04:37:44.201Z,180.00
2019-06-26T04:38:44.155Z,191.25
2019-06-26T04:39:44.159Z,196.88
2019-06-26T04:40:44.155Z,196.88
2019-06-26T04:41:44.161Z,196.88
2019-06-26T04:42:44.125Z,191.25
2019-06-26T04:43:44.096Z,196.88
2019-06-26T04:44:44.128Z,196.88
2019-06-26T04:45:57.286Z,196.88
2019-06-26T04:46:45.080Z,196.88
2019-06-26T04:47:44.101Z,196.88
2019-06-26T04:48:44.055Z,202.50
2019-06-26T04:49:44.061Z,208.12
2019-06-26T04:50:44.035Z,208.12
2019-06-26T04:51:44.021Z,213.75
2019-06-26T04:52:44.059Z,219.38
2019-06-26T04:53:44.006Z,219.38
2019-06-26T04:54:43.991Z,225.00
2019-06-26T04:55:43.978Z,230.62
2019-06-26T04:56:43.988Z,230.62
2019-06-26T04:57:43.994Z,236.25
2019-06-26T04:58:43.959Z,241.88
2019-06-26T04:59:43.942Z,247.50
2019-06-26T05:00:43.918Z,247.50
2019-06-26T05:01:43.926Z,270.00
2019-06-26T05:02:43.926Z,258.75
2019-06-26T05:03:43.916Z,258.75
2019-06-26T05:04:43.882Z,264.38
2019-06-26T05:05:44.600Z,270.00
2019-06-26T05:06:43.855Z,275.62
2019-06-26T05:07:43.994Z,281.25
2019-06-26T05:08:43.849Z,281.25
2019-06-26T05:09:43.836Z,286.88
2019-06-26T05:10:43.816Z,292.50
2019-06-26T05:11:43.809Z,298.12
2019-06-26T05:12:43.824Z,298.12
2019-06-26T05:13:43.784Z,303.75
2019-06-26T05:14:43.769Z,309.38
2019-06-26T05:15:43.752Z,309.38
2019-06-26T05:16:43.749Z,315.00
2019-06-26T05:17:43.782Z,326.25
2019-06-26T05:18:43.729Z,326.25
2019-06-26T05:19:43.736Z,331.88
2019-06-26T05:20:43.697Z,337.50
2019-06-26T05:21:43.707Z,343.12
2019-06-26T05:22:43.718Z,348.75
2019-06-26T05:23:43.713Z,354.38
2019-06-26T05:24:46.435Z,360.00
2019-06-26T05:25:43.662Z,365.62
2019-06-26T05:26:43.644Z,365.62
2019-06-26T05:27:43.658Z,371.25
2019-06-26T05:28:43.615Z,376.88
2019-06-26T05:29:43.610Z,382.50
2019-06-26T05:30:43.598Z,388.12
2019-06-26T05:31:43.599Z,393.75
2019-06-26T05:32:43.605Z,399.38
2019-06-26T05:33:43.564Z,405.00
2019-06-26T05:34:43.565Z,405.00
2019-06-26T05:35:43.570Z,416.25
2019-06-26T05:36:43.527Z,421.88
2019-06-26T05:37:43.548Z,433.12
2019-06-26T05:38:43.520Z,433.12
2019-06-26T05:39:43.487Z,450.00
2019-06-26T05:40:43.476Z,444.38
2019-06-26T05:41:43.468Z,450.00
2019-06-26T05:42:43.501Z,455.62
2019-06-26T05:43:43.468Z,461.25
2019-06-26T05:44:43.463Z,466.88
2019-06-26T05:45:43.432Z,472.50
2019-06-26T05:46:43.435Z,495.00
2019-06-26T05:47:43.445Z,489.38
2019-06-26T05:48:43.423Z,495.00
2019-06-26T05:49:43.412Z,495.00
2019-06-26T05:50:43.424Z,500.62
2019-06-26T05:51:43.389Z,500.62
2019-06-26T05:52:43.417Z,511.88
2019-06-26T05:53:43.354Z,511.88
2019-06-26T05:54:43.344Z,523.12
2019-06-26T05:55:43.324Z,585.00
2019-06-26T05:56:45.434Z,776.25
2019-06-26T05:57:43.352Z,658.12
2019-06-26T05:58:43.298Z,562.50
2019-06-26T05:59:43.300Z,556.88
2019-06-26T06:00:43.275Z,562.50
2019-06-26T06:01:43.302Z,568.12
2019-06-26T06:02:43.249Z,810.00
2019-06-26T06:03:43.259Z,1220.62
2019-06-26T06:04:43.243Z,1406.25
2019-06-26T06:05:43.263Z,1485.00
2019-06-26T06:06:43.241Z,1535.62
2019-06-26T06:07:43.206Z,1586.25
2019-06-26T06:08:43.217Z,1687.50
2019-06-26T06:09:43.187Z,1687.50
2019-06-26T06:10:43.417Z,1659.38
2019-06-26T06:11:43.196Z,1710.00
2019-06-26T06:12:43.164Z,1755.00
2019-06-26T06:13:43.148Z,1805.62
2019-06-26T06:14:43.142Z,1839.38
2019-06-26T06:15:43.119Z,1816.88
2019-06-26T06:16:47.228Z,1800.00
2019-06-26T06:17:43.133Z,1800.00
2019-06-26T06:18:43.122Z,1884.38
2019-06-26T06:19:43.118Z,1906.88
2019-06-26T06:20:43.073Z,1884.38
2019-06-26T06:21:43.064Z,1895.62
2019-06-26T06:22:43.079Z,1884.38
2019-06-26T06:23:43.072Z,1878.75
2019-06-26T06:24:43.034Z,1884.38
2019-06-26T06:25:43.033Z,1935.00
2019-06-26T06:26:43.047Z,1923.75
2019-06-26T06:27:43.053Z,1985.62
2019-06-26T06:28:43.007Z,2047.50
2019-06-26T06:29:43.004Z,2041.88
2019-06-26T06:30:42.993Z,2025.00
2019-06-26T06:31:43.007Z,1968.75
2019-06-26T06:32:43.022Z,1963.12
2019-06-26T06:33:43.071Z,1980.00
2019-06-26T06:34:42.953Z,1991.25
2019-06-26T06:35:42.949Z,2008.12
2019-06-26T06:36:42.930Z,2036.25
2019-06-26T06:37:42.949Z,2064.38
2019-06-26T06:38:42.899Z,2081.25
2019-06-26T06:39:42.895Z,2064.38
2019-06-26T06:40:42.904Z,2064.38
2019-06-26T06:41:43.565Z,2086.88
2019-06-26T06:42:42.883Z,2086.88
2019-06-26T06:43:42.877Z,2165.62
2019-06-26T06:44:42.838Z,2103.75
2019-06-26T06:45:42.835Z,2036.25
2019-06-26T06:46:42.842Z,2098.12
2019-06-26T06:47:42.845Z,2137.50
2019-06-26T06:48:42.808Z,2109.38
2019-06-26T06:49:42.817Z,2036.25
2019-06-26T06:50:42.812Z,2086.88
2019-06-26T06:51:42.804Z,2036.25
2019-06-26T06:52:42.824Z,2165.62
2019-06-26T06:53:42.785Z,2205.00
2019-06-26T06:54:42.784Z,2205.00
2019-06-26T06:55:42.746Z,2199.38
2019-06-26T06:56:42.747Z,2210.62
2019-06-26T06:57:42.774Z,2278.12
2019-06-26T06:58:42.714Z,2255.62
2019-06-26T06:59:42.698Z,2199.38
2019-06-26T07:00:42.716Z,2205.00
2019-06-26T07:01:42.684Z,2227.50
2019-06-26T07:02:42.719Z,2272.50
2019-06-26T07:03:42.699Z,2255.62
2019-06-26T07:04:42.679Z,2221.88
2019-06-26T07:05:42.710Z,2244.38
2019-06-26T07:06:42.642Z,2334.38
2019-06-26T07:07:42.680Z,2345.62
2019-06-26T07:08:42.674Z,2328.75
2019-06-26T07:09:42.648Z,2345.62
2019-06-26T07:10:42.640Z,2328.75
2019-06-26T07:11:42.614Z,2407.50
2019-06-26T07:12:42.648Z,2430.00
2019-06-26T07:13:42.597Z,2396.25
2019-06-26T07:14:42.607Z,2289.38
2019-06-26T07:15:42.675Z,2328.75
2019-06-26T07:16:42.566Z,2362.50
2019-06-26T07:17:42.586Z,2340.00
2019-06-26T07:18:42.563Z,2351.25
2019-06-26T07:19:42.555Z,2469.38
2019-06-26T07:20:44.739Z,2424.38
2019-06-26T07:21:42.525Z,2356.88
2019-06-26T07:22:42.553Z,2334.38
2019-06-26T07:23:42.530Z,2373.75
2019-06-26T07:24:42.509Z,2435.62
2019-06-26T07:25:42.509Z,2469.38
2019-06-26T07:26:42.484Z,2373.75
2019-06-26T07:27:42.531Z,2323.12
2019-06-26T07:28:42.486Z,2295.00
2019-06-26T07:29:42.473Z,2373.75
2019-06-26T07:30:42.454Z,2385.00
2019-06-26T07:31:42.442Z,2441.25
2019-06-26T07:32:42.485Z,2480.62
2019-06-26T07:33:42.438Z,2351.25
2019-06-26T07:34:42.421Z,2390.62
2019-06-26T07:35:42.415Z,2435.62
2019-06-26T07:36:42.401Z,2418.75
2019-06-26T07:37:42.444Z,2446.88
2019-06-26T07:38:42.390Z,2390.62
2019-06-26T07:39:42.365Z,2497.50
2019-06-26T07:40:42.411Z,2441.25
2019-06-26T07:41:42.365Z,2340.00
2019-06-26T07:42:42.398Z,2407.50
2019-06-26T07:43:42.356Z,2368.12
2019-06-26T07:44:42.329Z,2289.38
2019-06-26T07:45:42.341Z,2413.12
2019-06-26T07:46:42.324Z,2525.62
2019-06-26T07:47:44.206Z,2435.62
2019-06-26T07:48:42.300Z,2446.88
2019-06-26T07:49:42.291Z,2491.88
2019-06-26T07:50:42.282Z,2385.00
2019-06-26T07:51:42.287Z,2390.62
2019-06-26T07:52:42.508Z,2401.88
2019-06-26T07:53:42.301Z,2396.25
2019-06-26T07:54:42.278Z,2390.62
2019-06-26T07:55:42.309Z,2396.25
2019-06-26T07:56:42.217Z,2317.50
2019-06-26T07:57:42.273Z,2283.75
2019-06-26T07:58:42.233Z,2475.00
2019-06-26T07:59:42.237Z,2469.38
2019-06-26T08:00:42.203Z,2469.38
2019-06-26T08:01:42.202Z,2514.38
2019-06-26T08:02:42.212Z,2418.75
2019-06-26T08:03:42.184Z,2430.00
2019-06-26T08:04:42.174Z,2475.00
2019-06-26T08:05:43.259Z,2300.62
2019-06-26T08:06:42.148Z,2289.38
2019-06-26T08:07:42.190Z,2356.88
2019-06-26T08:08:42.154Z,2368.12
2019-06-26T08:09:42.131Z,2401.88
2019-06-26T08:10:42.110Z,2424.38
2019-06-26T08:11:42.116Z,2435.62
2019-06-26T08:12:42.106Z,2373.75
2019-06-26T08:13:42.104Z,2334.38
2019-06-26T08:14:42.084Z,2373.75
2019-06-26T08:15:42.096Z,2430.00
2019-06-26T08:16:42.077Z,2401.88
2019-06-26T08:17:55.932Z,2351.25
2019-06-26T08:18:43.056Z,2373.75
2019-06-26T08:19:42.039Z,2334.38
2019-06-26T08:20:55.333Z,2300.62
2019-06-26T08:21:46.494Z,2272.50
2019-06-26T08:22:42.033Z,2401.88
2019-06-26T08:23:42.034Z,2351.25
2019-06-26T08:24:42.002Z,2368.12
2019-06-26T08:25:41.997Z,2345.62
2019-06-26T08:26:41.973Z,2266.88
2019-06-26T08:27:41.989Z,2345.62
2019-06-26T08:28:42.013Z,2328.75
2019-06-26T08:29:41.986Z,2323.12
2019-06-26T08:30:41.951Z,2407.50
2019-06-26T08:31:41.945Z,2401.88
2019-06-26T08:32:41.926Z,2300.62
2019-06-26T08:33:41.979Z,2233.12
2019-06-26T08:34:41.922Z,2306.25
2019-06-26T08:35:41.930Z,2351.25
2019-06-26T08:36:41.895Z,2385.00
2019-06-26T08:37:41.899Z,2373.75
2019-06-26T08:38:41.919Z,2323.12
2019-06-26T08:39:41.884Z,2345.62
2019-06-26T08:40:41.858Z,2401.88
2019-06-26T08:41:41.867Z,2385.00
2019-06-26T08:42:41.837Z,2362.50
2019-06-26T08:43:41.887Z,2272.50
2019-06-26T08:44:41.839Z,2272.50
2019-06-26T08:45:41.820Z,2289.38
2019-06-26T08:46:41.816Z,2356.88
2019-06-26T08:47:41.821Z,2283.75
2019-06-26T08:48:41.829Z,2317.50
2019-06-26T08:49:41.798Z,2390.62
2019-06-26T08:50:41.803Z,2250.00
2019-06-26T08:51:41.771Z,2255.62
2019-06-26T08:52:41.795Z,2272.50
2019-06-26T08:53:41.807Z,2255.62
2019-06-26T08:54:41.780Z,2328.75
2019-06-26T08:55:41.752Z,2328.75
2019-06-26T08:56:41.748Z,2300.62
2019-06-26T08:57:41.736Z,2334.38
2019-06-26T08:58:41.727Z,2210.62
2019-06-26T08:59:41.736Z,2148.75
2019-06-26T09:00:41.763Z,2165.62
2019-06-26T09:01:41.695Z,2250.00
2019-06-26T09:02:41.703Z,2193.75
2019-06-26T09:03:42.191Z,2205.00
2019-06-26T09:04:41.697Z,2272.50
2019-06-26T09:05:48.157Z,2272.50
2019-06-26T09:06:42.677Z,2221.88
2019-06-26T09:07:41.647Z,2227.50
2019-06-26T09:08:41.657Z,2188.12
2019-06-26T09:09:41.670Z,2120.62
2019-06-26T09:10:44.833Z,2205.00
2019-06-26T09:11:41.614Z,2120.62
2019-06-26T09:12:41.618Z,2176.88
2019-06-26T09:13:41.622Z,2210.62
2019-06-26T09:14:41.604Z,2176.88
2019-06-26T09:15:41.608Z,2143.12
2019-06-26T09:16:41.577Z,2103.75
2019-06-26T09:17:41.577Z,2126.25
2019-06-26T09:18:41.571Z,2171.25
2019-06-26T09:19:41.599Z,2103.75
2019-06-26T09:20:41.541Z,2126.25
2019-06-26T09:21:41.529Z,2131.88
2019-06-26T09:22:41.538Z,2098.12
2019-06-26T09:23:41.561Z,2064.38
2019-06-26T09:24:41.502Z,2075.62
2019-06-26T09:25:41.534Z,1980.00
2019-06-26T09:26:41.502Z,1935.00
2019-06-26T09:27:41.481Z,1991.25
2019-06-26T09:28:41.524Z,1991.25
2019-06-26T09:29:41.473Z,2036.25
2019-06-26T09:30:41.467Z,2019.38
2019-06-26T09:31:41.471Z,2030.62
2019-06-26T09:32:41.448Z,2047.50
2019-06-26T09:33:41.453Z,2013.75
2019-06-26T09:34:41.437Z,1968.75
2019-06-26T09:35:41.419Z,1974.38
2019-06-26T09:36:41.407Z,1935.00
2019-06-26T09:37:41.435Z,1963.12
2019-06-26T09:38:41.414Z,2008.12
2019-06-26T09:39:41.383Z,1974.38
2019-06-26T09:40:41.395Z,1974.38
2019-06-26T09:41:41.387Z,2002.50
2019-06-26T09:42:41.445Z,1929.38
2019-06-26T09:43:41.385Z,1974.38
2019-06-26T09:44:41.391Z,1946.25
2019-06-26T09:45:41.339Z,1940.62
2019-06-26T09:46:41.344Z,1884.38
2019-06-26T09:47:41.310Z,1918.12
2019-06-26T09:48:52.180Z,1890.00
2019-06-26T09:49:42.292Z,1867.50
2019-06-26T09:50:41.294Z,1951.88
2019-06-26T09:51:41.312Z,1912.50
2019-06-26T09:52:41.277Z,1845.00
2019-06-26T09:53:47.050Z,1856.25
2019-06-26T09:54:42.259Z,1794.38
2019-06-26T09:55:41.241Z,1788.75
2019-06-26T09:56:41.266Z,1794.38
2019-06-26T09:57:41.267Z,1771.88
2019-06-26T09:58:41.281Z,1743.75
2019-06-26T09:59:41.233Z,1828.12
2019-06-26T10:00:41.229Z,1794.38
2019-06-26T10:01:41.242Z,1743.75
2019-06-26T10:02:41.214Z,1850.62
2019-06-26T10:03:45.025Z,1833.75
2019-06-26T10:04:41.181Z,1788.75
2019-06-26T10:05:41.161Z,1800.00
2019-06-26T10:06:41.161Z,1760.62
2019-06-26T10:07:41.170Z,1755.00
2019-06-26T10:08:41.144Z,1755.00
2019-06-26T10:09:41.154Z,1704.38
2019-06-26T10:10:41.145Z,1687.50
2019-06-26T10:11:41.106Z,1698.75
2019-06-26T10:12:41.142Z,1721.25
2019-06-26T10:13:41.101Z,1704.38
2019-06-26T10:14:47.846Z,1670.62
2019-06-26T10:15:42.086Z,1665.00
2019-06-26T10:16:41.080Z,1653.75
2019-06-26T10:17:41.114Z,1659.38
2019-06-26T10:18:41.050Z,1665.00
2019-06-26T10:19:41.052Z,1653.75
2019-06-26T10:20:41.031Z,1693.12
2019-06-26T10:21:41.033Z,1681.88
2019-06-26T10:22:41.054Z,1614.38
2019-06-26T10:23:41.016Z,1631.25
2019-06-26T10:24:41.022Z,1676.25
2019-06-26T10:25:40.996Z,1608.75
2019-06-26T10:26:41.001Z,1530.00
2019-06-26T10:27:41.031Z,1383.75
2019-06-26T10:28:40.996Z,1327.50
2019-06-26T10:29:40.956Z,1434.38
2019-06-26T10:30:40.950Z,1485.00
2019-06-26T10:31:40.952Z,1546.88
2019-06-26T10:32:40.975Z,1507.50
2019-06-26T10:33:40.932Z,1535.62
2019-06-26T10:34:40.919Z,1513.12
2019-06-26T10:35:40.903Z,1501.88
2019-06-26T10:36:40.911Z,1524.38
2019-06-26T10:37:40.913Z,1490.62
2019-06-26T10:38:40.902Z,1479.38
2019-06-26T10:39:40.867Z,1462.50
2019-06-26T10:40:40.864Z,1423.12
2019-06-26T10:41:40.858Z,1400.62
2019-06-26T10:42:40.893Z,1428.75
2019-06-26T10:43:40.841Z,1456.88
2019-06-26T10:44:40.873Z,1501.88
2019-06-26T10:45:40.838Z,1530.00
2019-06-26T10:46:40.828Z,1485.00
2019-06-26T10:47:40.808Z,1074.38
2019-06-26T10:48:40.788Z,804.38
2019-06-26T10:49:40.813Z,770.62
2019-06-26T10:50:48.562Z,759.38
2019-06-26T10:51:41.769Z,736.88
2019-06-26T10:52:40.805Z,753.75
2019-06-26T10:53:40.759Z,770.62
2019-06-26T10:54:44.141Z,759.38
2019-06-26T10:55:40.742Z,753.75
2019-06-26T10:56:40.730Z,748.12
2019-06-26T10:57:40.721Z,753.75
2019-06-26T10:58:40.709Z,748.12
2019-06-26T10:59:40.693Z,742.50
2019-06-26T11:00:40.728Z,736.88
2019-06-26T11:01:40.695Z,753.75
2019-06-26T11:02:40.669Z,759.38
2019-06-26T11:03:40.648Z,748.12
2019-06-26T11:04:40.664Z,736.88
2019-06-26T11:05:40.638Z,753.75
2019-06-26T11:06:40.647Z,781.88
2019-06-26T11:07:40.619Z,759.38
2019-06-26T11:08:40.610Z,753.75
2019-06-26T11:09:40.651Z,759.38
2019-06-26T11:10:40.590Z,793.12
2019-06-26T11:11:40.603Z,787.50
2019-06-26T11:12:40.599Z,770.62
2019-06-26T11:13:40.582Z,759.38
2019-06-26T11:14:40.589Z,770.62
2019-06-26T11:15:40.541Z,753.75
2019-06-26T11:16:40.531Z,748.12
2019-06-26T11:17:40.535Z,742.50
2019-06-26T11:18:40.529Z,753.75
2019-06-26T11:19:44.386Z,753.75
2019-06-26T11:20:40.534Z,753.75
2019-06-26T11:21:40.491Z,759.38
2019-06-26T11:22:40.492Z,765.00
2019-06-26T11:23:40.481Z,759.38
2019-06-26T11:24:40.523Z,748.12
2019-06-26T11:25:44.165Z,742.50
2019-06-26T11:26:40.493Z,736.88
2019-06-26T11:27:40.437Z,720.00
2019-06-26T11:28:40.443Z,691.88
2019-06-26T11:29:40.666Z,675.00
2019-06-26T11:30:40.436Z,669.38
2019-06-26T11:31:40.435Z,652.50
2019-06-26T11:32:40.412Z,641.25
2019-06-26T11:33:40.399Z,635.62
2019-06-26T11:34:40.405Z,618.75
2019-06-26T11:35:40.371Z,618.75
2019-06-26T11:36:40.356Z,607.50
2019-06-26T11:37:40.367Z,601.88
2019-06-26T11:38:40.341Z,607.50
2019-06-26T11:39:40.367Z,596.25
2019-06-26T11:40:40.329Z,590.62
2019-06-26T11:41:40.330Z,585.00
2019-06-26T11:42:40.314Z,579.38
2019-06-26T11:43:40.292Z,579.38
2019-06-26T11:44:40.343Z,573.75
2019-06-26T11:45:40.288Z,562.50
2019-06-26T11:46:40.274Z,556.88
2019-06-26T11:47:40.272Z,551.25
2019-06-26T11:48:40.296Z,545.62
2019-06-26T11:49:40.271Z,545.62
2019-06-26T11:50:40.231Z,540.00
2019-06-26T11:51:40.220Z,528.75
2019-06-26T11:52:40.230Z,528.75
2019-06-26T11:53:40.217Z,517.50
2019-06-26T11:54:40.240Z,506.25
2019-06-26T11:55:40.193Z,500.62
2019-06-26T11:56:40.186Z,506.25
2019-06-26T11:57:40.170Z,500.62
2019-06-26T11:58:40.174Z,489.38
2019-06-26T11:59:40.187Z,483.75
2019-06-26T12:00:41.678Z,478.12
2019-06-26T12:01:40.148Z,466.88
2019-06-26T12:02:40.147Z,466.88
2019-06-26T12:03:40.113Z,461.25
2019-06-26T12:04:40.158Z,461.25
2019-06-26T12:05:40.174Z,455.62
2019-06-26T12:06:40.109Z,455.62
2019-06-26T12:07:40.063Z,450.00
2019-06-26T12:08:40.063Z,455.62
2019-06-26T12:09:40.122Z,444.38
2019-06-26T12:10:40.056Z,444.38
2019-06-26T12:11:40.052Z,438.75
2019-06-26T12:12:40.032Z,433.12
2019-06-26T12:13:40.023Z,433.12
2019-06-26T12:14:40.059Z,427.50
2019-06-26T12:15:40.004Z,416.25
2019-06-26T12:16:40.052Z,410.62
2019-06-26T12:17:39.996Z,410.62
2019-06-26T12:18:39.983Z,410.62
2019-06-26T12:19:39.995Z,410.62
2019-06-26T12:20:39.964Z,405.00
2019-06-26T12:21:39.956Z,399.38
2019-06-26T12:22:39.922Z,393.75
2019-06-26T12:23:39.920Z,388.12
2019-06-26T12:24:39.974Z,388.12
2019-06-26T12:25:39.905Z,388.12
2019-06-26T12:26:39.905Z,382.50
2019-06-26T12:27:39.900Z,376.88
2019-06-26T12:28:39.903Z,376.88
2019-06-26T12:29:39.904Z,371.25
2019-06-26T12:30:39.872Z,371.25
2019-06-26T12:31:39.862Z,365.62
2019-06-26T12:32:42.593Z,365.62
2019-06-26T12:33:40.824Z,360.00
2019-06-26T12:34:39.859Z,354.38